Time;durP1;ratioP1;P1;durP2;ratioP2;P2;SDS_P1;SDS_P2;PMS_P1;PMS_P2;Temp;Humidity;BMP_temperature;BMP_pressure;BME280_temperature;BME280_humidity;BME280_pressure;Samples;Min_cycle;Max_cycle;Signal;HPM_P1;HPM_P2
2022/10/31 00:00:28;;;;;;;19.15;11.75;;;;;;;;;;10281533;28;20426;-94
2022/10/31 00:05:31;;;;;;;22.70;13.57;;;;;;;;;;10284275;28;20818;-96
2022/10/31 00:10:51;;;;;;;19.65;12.35;;;;;;;;;;10289032;28;20469;-95
2022/10/31 00:16:04;;;;;;;20.63;12.88;;;;;;;;;;10278375;28;20438;-95
2022/10/31 00:26:46;;;;;;;22.60;12.77;;;;;;;;;;10273798;28;20458;-95
2022/10/31 00:31:56;;;;;;;20.07;12.00;;;;;;;;;;10281144;28;20418;-95
2022/10/31 00:54:54;;;;;;;17.48;12.07;;;;;;;;;;10161633;29;20897;-95
2022/10/31 01:12:02;;;;;;;;;;;;;;;;;;;;;
2022/10/31 01:29:18;;;;;;;17.17;11.70;;;;;;;;;;10104569;29;20411;-96
2022/10/31 01:34:45;;;;;;;17.45;11.65;;;;;;;;;;10056429;29;20413;-95
2022/10/31 01:40:58;;;;;;;16.17;10.93;;;;;;;;;;10241604;28;20427;-96
2022/10/31 02:14:53;;;;;;;17.13;10.25;;;;;;;;;;10272525;28;20929;-96
2022/10/31 02:20:21;;;;;;;;;;;;;;;;;;;;;
2022/10/31 02:32:02;;;;;;;17.35;10.45;;;;;;;;;;10241521;29;20412;-96
2022/10/31 02:43:36;;;;;;;21.33;10.70;;;;;;;;;;10238479;28;20612;-96
2022/10/31 02:54:38;;;;;;;14.30;9.50;;;;;;;;;;10227204;28;20415;-95
2022/10/31 03:11:24;;;;;;;14.13;9.57;;;;;;;;;;10226429;28;20408;-96
2022/10/31 03:16:51;;;;;;;17.02;9.73;;;;;;;;;;10311819;28;20502;-96
2022/10/31 03:28:18;;;;;;;14.93;9.85;;;;;;;;;;10201278;29;20493;-96
2022/10/31 03:33:49;;;;;;;15.68;10.07;;;;;;;;;;10198451;29;20409;-96
2022/10/31 03:38:56;;;;;;;15.20;9.23;;;;;;;;;;10268166;28;20920;-96
2022/10/31 03:44:40;;;;;;;13.23;8.98;;;;;;;;;;10292193;28;20453;-96
2022/10/31 03:50:20;;;;;;;14.77;9.38;;;;;;;;;;10352732;23;20399;-96
2022/10/31 04:01:39;;;;;;;15.43;9.47;;;;;;;;;;10452075;28;20397;-94
2022/10/31 04:07:18;;;;;;;15.45;8.68;;;;;;;;;;10394122;28;20423;-95
2022/10/31 04:12:57;;;;;;;16.42;9.10;;;;;;;;;;10407076;28;20417;-95
2022/10/31 04:24:13;;;;;;;15.80;9.30;;;;;;;;;;10364849;28;20413;-96
2022/10/31 04:29:21;;;;;;;15.37;8.60;;;;;;;;;;10418198;28;20405;-96
2022/10/31 04:34:43;;;;;;;12.70;8.70;;;;;;;;;;10419295;28;20409;-96
2022/10/31 04:40:07;;;;;;;14.67;9.30;;;;;;;;;;10403992;28;20413;-96
2022/10/31 04:45:58;;;;;;;;;;;;;;;;;;;;;
2022/10/31 04:51:24;;;;;;;;;;;;;;;;;;;;;
2022/10/31 04:56:54;;;;;;;16.23;8.20;;;;;;;;;;10361774;28;20416;-96
2022/10/31 06:32:34;;;;;;;16.13;8.05;;;;;;;;;;9893894;29;20428;-95
2022/10/31 06:55:43;;;;;;;16.10;8.65;;;;;;;;;;10144507;29;20401;-81
2022/10/31 07:19:44;;;;;;;18.55;9.45;;;;;;;;;;10269897;28;20404;-94
2022/10/31 07:31:53;;;;;;;14.27;9.10;;;;;;;;;;10282217;28;20419;-94
2022/10/31 07:55:30;;;;;;;;;;;;;;;;;;;;;
2022/10/31 08:00:38;;;;;;;19.30;9.13;;;;;;;;;;10231795;28;20477;-93
2022/10/31 08:06:14;;;;;;;16.20;8.13;;;;;;;;;;10350114;28;20760;-94
2022/10/31 08:11:37;;;;;;;14.75;8.02;;;;;;;;;;10337815;28;20417;-93
2022/10/31 08:17:06;;;;;;;14.48;9.05;;;;;;;;;;10349485;28;20553;-94
2022/10/31 08:27:43;;;;;;;15.57;7.80;;;;;;;;;;10338729;28;20420;-93
2022/10/31 08:32:49;;;;;;;13.10;7.87;;;;;;;;;;10356885;28;20807;-92
2022/10/31 14:21:55;;;;;;;12.75;5.30;;;;;;;;;;10383843;23;20421;-87
2022/10/31 14:26:59;;;;;;;14.88;6.53;;;;;;;;;;10353260;28;20407;-95
2022/10/31 14:57:57;;;;;;;10.40;5.27;;;;;;;;;;11059826;23;20452;-88
2022/10/31 15:03:10;;;;;;;15.57;5.05;;;;;;;;;;10344025;28;20452;-88
2022/10/31 15:08:26;;;;;;;12.38;5.07;;;;;;;;;;10334693;28;20485;-89
2022/10/31 15:13:34;;;;;;;18.55;12.23;;;;;;;;;;10344749;28;20444;-92
2022/10/31 15:18:36;;;;;;;16.53;6.13;;;;;;;;;;10332298;28;20439;-87
2022/10/31 16:05:47;;;;;;;12.00;5.93;;;;;;;;;;12437394;23;20462;-90
2022/10/31 16:57:34;;;;;;;19.35;10.18;;;;;;;;;;10285649;28;20455;-96
2022/10/31 17:02:46;;;;;;;19.25;10.75;;;;;;;;;;10293715;28;20458;-96
2022/10/31 17:07:50;;;;;;;21.10;10.75;;;;;;;;;;10443374;23;20465;-96
2022/10/31 17:12:58;;;;;;;25.30;15.05;;;;;;;;;;10356214;28;20422;-95
2022/10/31 17:18:00;;;;;;;31.40;14.47;;;;;;;;;;10383607;28;20525;-95
2022/10/31 17:23:10;;;;;;;27.00;13.63;;;;;;;;;;10364491;28;20430;-95
2022/10/31 17:28:14;;;;;;;25.50;13.77;;;;;;;;;;10348295;28;20493;-95
2022/10/31 17:39:12;;;;;;;27.75;15.27;;;;;;;;;;10272714;28;20771;-94
2022/10/31 17:44:17;;;;;;;28.55;14.73;;;;;;;;;;10393145;28;20425;-95
2022/10/31 17:49:20;;;;;;;29.73;15.37;;;;;;;;;;10365826;28;20417;-94
2022/10/31 17:54:22;;;;;;;29.25;15.40;;;;;;;;;;10357617;28;20531;-94
2022/10/31 17:59:28;;;;;;;32.25;15.52;;;;;;;;;;10354175;28;20497;-94
2022/10/31 18:04:39;;;;;;;31.20;16.35;;;;;;;;;;10347097;28;20437;-94
2022/10/31 18:09:43;;;;;;;29.20;16.35;;;;;;;;;;10361222;28;20473;-94
2022/10/31 18:14:47;;;;;;;30.35;17.15;;;;;;;;;;10345539;28;20423;-94
2022/10/31 18:19:50;;;;;;;30.25;16.95;;;;;;;;;;10355886;28;20483;-94
2022/10/31 18:24:52;;;;;;;30.50;17.23;;;;;;;;;;10354005;28;20590;-95
2022/10/31 18:30:00;;;;;;;34.37;17.57;;;;;;;;;;10360845;28;20443;-94
2022/10/31 18:35:14;;;;;;;32.97;17.70;;;;;;;;;;10333864;28;20543;-94
2022/10/31 18:46:22;;;;;;;33.17;18.10;;;;;;;;;;10347019;28;20458;-96
2022/10/31 18:51:26;;;;;;;31.73;16.90;;;;;;;;;;10342019;28;20434;-95
2022/10/31 18:56:30;;;;;;;34.50;18.63;;;;;;;;;;10347645;28;20418;-96
2022/10/31 19:01:34;;;;;;;30.55;17.77;;;;;;;;;;10345618;28;20456;-95
2022/10/31 19:06:54;;;;;;;37.00;17.80;;;;;;;;;;10350768;28;20443;-95
2022/10/31 19:12:01;;;;;;;31.13;17.07;;;;;;;;;;10355841;28;20390;-96
2022/10/31 19:17:04;;;;;;;30.17;18.17;;;;;;;;;;10349806;28;20419;-96
2022/10/31 19:22:06;;;;;;;33.93;17.80;;;;;;;;;;10356677;28;21098;-96
2022/10/31 19:38:16;;;;;;;;;;;;;;;;;;;;;
2022/10/31 19:43:19;;;;;;;32.40;18.73;;;;;;;;;;10339054;28;20423;-96
2022/10/31 19:48:22;;;;;;;37.03;20.15;;;;;;;;;;10343646;28;20428;-96
2022/10/31 19:53:29;;;;;;;37.15;21.63;;;;;;;;;;10342726;28;20419;-95
2022/10/31 19:58:35;;;;;;;39.92;21.67;;;;;;;;;;10334169;28;20432;-95
2022/10/31 20:03:49;;;;;;;40.40;21.73;;;;;;;;;;10344619;28;20911;-96
2022/10/31 20:08:51;;;;;;;39.40;22.38;;;;;;;;;;10344576;28;20436;-95
2022/10/31 20:14:06;;;;;;;39.97;22.33;;;;;;;;;;10345232;28;20419;-96
2022/10/31 20:19:10;;;;;;;43.87;22.67;;;;;;;;;;10348450;28;20452;-96
2022/10/31 20:24:15;;;;;;;34.42;22.95;;;;;;;;;;10351549;28;20904;-96
2022/10/31 20:29:32;;;;;;;41.80;22.77;;;;;;;;;;10360472;28;20511;-96
2022/10/31 20:34:36;;;;;;;39.65;22.00;;;;;;;;;;10362156;28;20513;-96
2022/10/31 20:39:38;;;;;;;41.58;22.00;;;;;;;;;;10358668;28;20939;-96
2022/10/31 20:44:40;;;;;;;39.03;22.10;;;;;;;;;;10353875;28;20513;-95
2022/10/31 20:49:44;;;;;;;38.33;21.65;;;;;;;;;;10383342;28;20476;-95
2022/10/31 20:54:46;;;;;;;37.05;20.23;;;;;;;;;;10384726;28;20392;-96
2022/10/31 20:59:58;;;;;;;38.42;21.08;;;;;;;;;;10352498;28;20479;-96
2022/10/31 21:05:31;;;;;;;33.58;19.83;;;;;;;;;;10351285;28;20420;-96
2022/10/31 21:10:33;;;;;;;32.72;19.35;;;;;;;;;;10332422;28;20414;-96
2022/10/31 21:15:35;;;;;;;33.58;19.95;;;;;;;;;;10348463;28;20498;-89
2022/10/31 21:20:42;;;;;;;56.80;22.00;;;;;;;;;;10358705;28;20498;-94
2022/10/31 21:25:44;;;;;;;33.80;19.80;;;;;;;;;;10351976;28;20910;-95
2022/10/31 21:30:50;;;;;;;37.80;21.50;;;;;;;;;;10349392;28;20427;-94
2022/10/31 21:35:53;;;;;;;36.67;19.88;;;;;;;;;;10346383;28;20423;-94
2022/10/31 21:41:01;;;;;;;34.20;19.60;;;;;;;;;;10353703;28;20427;-91
2022/10/31 21:46:04;;;;;;;33.43;19.13;;;;;;;;;;10343736;28;20431;-93
2022/10/31 21:51:10;;;;;;;38.80;22.13;;;;;;;;;;10345968;28;20456;-94
2022/10/31 21:56:12;;;;;;;36.35;21.63;;;;;;;;;;10353701;28;20485;-94
2022/10/31 22:01:14;;;;;;;32.70;20.10;;;;;;;;;;10356734;28;20438;-95
2022/10/31 22:06:18;;;;;;;35.88;19.65;;;;;;;;;;10356809;28;20841;-93
2022/10/31 22:11:20;;;;;;;38.00;20.70;;;;;;;;;;10349977;28;20826;-93
2022/10/31 22:16:27;;;;;;;33.07;18.83;;;;;;;;;;10349372;28;20455;-94
2022/10/31 22:21:35;;;;;;;29.37;17.83;;;;;;;;;;10349702;28;21258;-93
2022/10/31 22:26:38;;;;;;;29.63;17.67;;;;;;;;;;10355104;28;20426;-94
2022/10/31 22:31:42;;;;;;;32.63;18.95;;;;;;;;;;10353864;28;20464;-94
2022/10/31 22:36:45;;;;;;;31.58;18.20;;;;;;;;;;10347654;28;20484;-94
2022/10/31 22:41:47;;;;;;;26.55;16.98;;;;;;;;;;10335767;28;20991;-94
2022/10/31 22:46:52;;;;;;;27.83;16.30;;;;;;;;;;10356325;28;20413;-94
2022/10/31 22:51:58;;;;;;;27.13;16.75;;;;;;;;;;10346307;28;20476;-94
2022/10/31 22:57:00;;;;;;;31.50;17.05;;;;;;;;;;10351434;28;20430;-93
2022/10/31 23:02:11;;;;;;;28.95;17.52;;;;;;;;;;10345033;28;20419;-94
2022/10/31 23:07:22;;;;;;;30.35;16.45;;;;;;;;;;10352764;28;20787;-95
2022/10/31 23:17:43;;;;;;;28.20;16.23;;;;;;;;;;10360634;28;20385;-93
2022/10/31 23:22:47;;;;;;;28.80;16.58;;;;;;;;;;10356855;28;20988;-94
2022/10/31 23:27:49;;;;;;;26.65;15.60;;;;;;;;;;10343969;28;20473;-94
2022/10/31 23:32:51;;;;;;;25.35;14.82;;;;;;;;;;10343934;28;20436;-94
2022/10/31 23:37:54;;;;;;;23.67;15.23;;;;;;;;;;10351511;28;20408;-94
2022/10/31 23:42:57;;;;;;;28.50;15.23;;;;;;;;;;10350251;28;20422;-95
2022/10/31 23:47:59;;;;;;;26.38;14.70;;;;;;;;;;10346068;28;20440;-94
2022/10/31 23:53:02;;;;;;;24.33;14.45;;;;;;;;;;10357888;28;20926;-94
2022/10/31 23:58:04;;;;;;;24.98;13.98;;;;;;;;;;10350929;28;20439;-94
